sensor_id;sensor_type;location;lat;lon;timestamp;pressure;altitude;pressure_sealevel;temperature;humidity
32761;BME280;19126;47.472;7.850;2023-05-11T00:02:02;96494.94;;;10.06;100.00
32761;BME280;19126;47.472;7.850;2023-05-11T00:04:30;96497.72;;;10.04;100.00
32761;BME280;19126;47.472;7.850;2023-05-11T00:06:57;96498.06;;;10.01;100.00
32761;BME280;19126;47.472;7.850;2023-05-11T00:09:25;96495.44;;;10.01;100.00
32761;BME280;19126;47.472;7.850;2023-05-11T00:11:53;96495.97;;;9.96;100.00
32761;BME280;19126;47.472;7.850;2023-05-11T00:14:20;96495.31;;;9.94;100.00
32761;BME280;19126;47.472;7.850;2023-05-11T00:16:47;96491.06;;;9.93;100.00
32761;BME280;19126;47.472;7.850;2023-05-11T00:19:16;96489.59;;;9.91;100.00
32761;BME280;19126;47.472;7.850;2023-05-11T00:21:43;96482.56;;;9.91;100.00
32761;BME280;19126;47.472;7.850;2023-05-11T00:24:10;96484.19;;;9.92;100.00
32761;BME280;19126;47.472;7.850;2023-05-11T00:26:38;96483.88;;;9.87;100.00
32761;BME280;19126;47.472;7.850;2023-05-11T00:29:05;96488.31;;;9.87;100.00
32761;BME280;19126;47.472;7.850;2023-05-11T00:31:32;96482.41;;;9.85;100.00
32761;BME280;19126;47.472;7.850;2023-05-11T00:33:59;96479.97;;;9.83;100.00
32761;BME280;19126;47.472;7.850;2023-05-11T00:36:28;96475.88;;;9.80;100.00
32761;BME280;19126;47.472;7.850;2023-05-11T00:38:55;96475.06;;;9.80;100.00
32761;BME280;19126;47.472;7.850;2023-05-11T00:41:23;96468.19;;;9.79;100.00
32761;BME280;19126;47.472;7.850;2023-05-11T00:43:50;96468.34;;;9.77;100.00
32761;BME280;19126;47.472;7.850;2023-05-11T00:46:17;96465.72;;;9.77;100.00
32761;BME280;19126;47.472;7.850;2023-05-11T00:48:44;96464.44;;;9.73;100.00
32761;BME280;19126;47.472;7.850;2023-05-11T00:51:12;96463.81;;;9.71;100.00
32761;BME280;19126;47.472;7.850;2023-05-11T00:53:41;96466.78;;;9.68;100.00
32761;BME280;19126;47.472;7.850;2023-05-11T00:56:08;96460.88;;;9.66;100.00
32761;BME280;19126;47.472;7.850;2023-05-11T00:58:36;96461.88;;;9.65;100.00
32761;BME280;19126;47.472;7.850;2023-05-11T01:01:03;96461.72;;;9.66;100.00
32761;BME280;19126;47.472;7.850;2023-05-11T01:03:31;96462.69;;;9.65;100.00
32761;BME280;19126;47.472;7.850;2023-05-11T01:06:07;96463.50;;;9.66;100.00
32761;BME280;19126;47.472;7.850;2023-05-11T01:08:42;96467.94;;;9.65;100.00
32761;BME280;19126;47.472;7.850;2023-05-11T01:11:16;96459.88;;;9.67;100.00
32761;BME280;19126;47.472;7.850;2023-05-11T01:13:52;96456.63;;;9.65;100.00
32761;BME280;19126;47.472;7.850;2023-05-11T01:16:22;96469.75;;;9.65;100.00
32761;BME280;19126;47.472;7.850;2023-05-11T01:18:54;96461.22;;;9.63;100.00
32761;BME280;19126;47.472;7.850;2023-05-11T01:21:24;96460.22;;;9.64;100.00
32761;BME280;19126;47.472;7.850;2023-05-11T01:24:36;96461.41;;;9.61;100.00
32761;BME280;19126;47.472;7.850;2023-05-11T01:27:33;96464.19;;;9.60;100.00
32761;BME280;19126;47.472;7.850;2023-05-11T01:30:26;96470.25;;;9.60;100.00
32761;BME280;19126;47.472;7.850;2023-05-11T01:33:01;96464.84;;;9.62;99.98
32761;BME280;19126;47.472;7.850;2023-05-11T01:35:31;96461.22;;;9.63;100.00
32761;BME280;19126;47.472;7.850;2023-05-11T01:38:03;96470.25;;;9.60;100.00
32761;BME280;19126;47.472;7.850;2023-05-11T01:40:34;96461.75;;;9.58;100.00
32761;BME280;19126;47.472;7.850;2023-05-11T01:43:08;96468.00;;;9.57;99.92
32761;BME280;19126;47.472;7.850;2023-05-11T01:45:44;96466.00;;;9.59;99.44
32761;BME280;19126;47.472;7.850;2023-05-11T01:48:17;96465.19;;;9.59;98.94
32761;BME280;19126;47.472;7.850;2023-05-11T01:50:48;96469.09;;;9.63;100.00
32761;BME280;19126;47.472;7.850;2023-05-11T01:53:17;96462.06;;;9.63;100.00
32761;BME280;19126;47.472;7.850;2023-05-11T01:55:46;96474.00;;;9.66;100.00
32761;BME280;19126;47.472;7.850;2023-05-11T01:58:16;96469.38;;;9.68;100.00
32761;BME280;19126;47.472;7.850;2023-05-11T02:00:47;96470.88;;;9.71;100.00
32761;BME280;19126;47.472;7.850;2023-05-11T02:03:15;96471.97;;;9.76;100.00
32761;BME280;19126;47.472;7.850;2023-05-11T02:05:46;96472.47;;;9.80;100.00
32761;BME280;19126;47.472;7.850;2023-05-11T02:08:16;96467.38;;;9.78;100.00
32761;BME280;19126;47.472;7.850;2023-05-11T02:10:44;96471.22;;;9.91;100.00
32761;BME280;19126;47.472;7.850;2023-05-11T02:13:14;96466.91;;;9.98;100.00
32761;BME280;19126;47.472;7.850;2023-05-11T02:15:42;96463.53;;;9.89;100.00
32761;BME280;19126;47.472;7.850;2023-05-11T02:18:14;96468.75;;;9.97;100.00
32761;BME280;19126;47.472;7.850;2023-05-11T02:20:43;96467.25;;;9.95;100.00
32761;BME280;19126;47.472;7.850;2023-05-11T02:23:13;96459.59;;;9.93;100.00
32761;BME280;19126;47.472;7.850;2023-05-11T02:25:41;96460.28;;;9.87;100.00
32761;BME280;19126;47.472;7.850;2023-05-11T02:28:09;96458.81;;;9.85;100.00
32761;BME280;19126;47.472;7.850;2023-05-11T02:30:43;96461.03;;;9.96;100.00
32761;BME280;19126;47.472;7.850;2023-05-11T02:33:19;96455.91;;;10.03;100.00
32761;BME280;19126;47.472;7.850;2023-05-11T02:35:49;96462.22;;;9.93;100.00
32761;BME280;19126;47.472;7.850;2023-05-11T02:38:18;96464.00;;;9.93;100.00
32761;BME280;19126;47.472;7.850;2023-05-11T02:40:49;96454.84;;;9.89;100.00
32761;BME280;19126;47.472;7.850;2023-05-11T02:43:21;96462.38;;;9.92;100.00
32761;BME280;19126;47.472;7.850;2023-05-11T02:45:53;96452.41;;;9.87;100.00
32761;BME280;19126;47.472;7.850;2023-05-11T02:48:38;96452.84;;;9.91;100.00
32761;BME280;19126;47.472;7.850;2023-05-11T02:51:10;96460.63;;;9.84;100.00
32761;BME280;19126;47.472;7.850;2023-05-11T02:53:40;96454.19;;;9.87;100.00
32761;BME280;19126;47.472;7.850;2023-05-11T02:56:09;96453.91;;;9.81;100.00
32761;BME280;19126;47.472;7.850;2023-05-11T02:58:36;96450.28;;;9.82;100.00
32761;BME280;19126;47.472;7.850;2023-05-11T03:01:06;96458.69;;;9.78;100.00
32761;BME280;19126;47.472;7.850;2023-05-11T03:03:34;96459.03;;;9.75;100.00
32761;BME280;19126;47.472;7.850;2023-05-11T03:06:02;96452.16;;;9.74;100.00
32761;BME280;19126;47.472;7.850;2023-05-11T03:08:29;96449.06;;;9.70;100.00
32761;BME280;19126;47.472;7.850;2023-05-11T03:10:57;96446.03;;;9.81;100.00
32761;BME280;19126;47.472;7.850;2023-05-11T03:13:25;96445.75;;;9.76;100.00
32761;BME280;19126;47.472;7.850;2023-05-11T03:15:54;96443.31;;;9.75;100.00
32761;BME280;19126;47.472;7.850;2023-05-11T03:18:22;96442.66;;;9.73;100.00
32761;BME280;19126;47.472;7.850;2023-05-11T03:20:51;96435.59;;;9.73;100.00
32761;BME280;19126;47.472;7.850;2023-05-11T03:23:19;96437.56;;;9.71;100.00
32761;BME280;19126;47.472;7.850;2023-05-11T03:25:47;96442.81;;;9.71;100.00
32761;BME280;19126;47.472;7.850;2023-05-11T03:28:15;96440.84;;;9.73;100.00
32761;BME280;19126;47.472;7.850;2023-05-11T03:30:45;96442.81;;;9.71;100.00
32761;BME280;19126;47.472;7.850;2023-05-11T03:33:13;96437.56;;;9.71;100.00
32761;BME280;19126;47.472;7.850;2023-05-11T03:35:42;96436.13;;;9.68;100.00
32761;BME280;19126;47.472;7.850;2023-05-11T03:38:14;96437.75;;;9.70;100.00
32761;BME280;19126;47.472;7.850;2023-05-11T03:40:43;96443.31;;;9.75;100.00
32761;BME280;19126;47.472;7.850;2023-05-11T03:43:16;96437.72;;;9.78;100.00
32761;BME280;19126;47.472;7.850;2023-05-11T03:45:45;96435.09;;;9.78;100.00
32761;BME280;19126;47.472;7.850;2023-05-11T03:48:14;96432.47;;;9.78;100.00
32761;BME280;19126;47.472;7.850;2023-05-11T03:50:42;96433.81;;;9.74;100.00
32761;BME280;19126;47.472;7.850;2023-05-11T03:53:11;96431.00;;;9.75;100.00
32761;BME280;19126;47.472;7.850;2023-05-11T03:55:39;96431.28;;;9.80;100.00
32761;BME280;19126;47.472;7.850;2023-05-11T03:58:07;96429.34;;;9.74;100.00
32761;BME280;19126;47.472;7.850;2023-05-11T04:00:38;96425.28;;;9.72;100.00
32761;BME280;19126;47.472;7.850;2023-05-11T04:03:05;96429.69;;;9.71;100.00
32761;BME280;19126;47.472;7.850;2023-05-11T04:05:33;96425.28;;;9.72;100.00
32761;BME280;19126;47.472;7.850;2023-05-11T04:08:01;96427.06;;;9.71;100.00
32761;BME280;19126;47.472;7.850;2023-05-11T04:10:30;96420.34;;;9.77;100.00
32761;BME280;19126;47.472;7.850;2023-05-11T04:12:57;96424.94;;;9.75;100.00
32761;BME280;19126;47.472;7.850;2023-05-11T04:15:25;96422.66;;;9.72;100.00
32761;BME280;19126;47.472;7.850;2023-05-11T04:17:52;96427.84;;;9.80;100.00
32761;BME280;19126;47.472;7.850;2023-05-11T04:20:19;96433.63;;;9.75;100.00
32761;BME280;19126;47.472;7.850;2023-05-11T04:22:47;96430.84;;;9.77;100.00
32761;BME280;19126;47.472;7.850;2023-05-11T04:25:14;96426.72;;;9.74;100.00
32761;BME280;19126;47.472;7.850;2023-05-11T04:27:43;96431.53;;;9.71;100.00
32761;BME280;19126;47.472;7.850;2023-05-11T04:30:11;96430.53;;;9.72;100.00
32761;BME280;19126;47.472;7.850;2023-05-11T04:32:39;96425.44;;;9.70;100.00
32761;BME280;19126;47.472;7.850;2023-05-11T04:35:07;96425.94;;;9.74;100.00
32761;BME280;19126;47.472;7.850;2023-05-11T04:37:36;96429.00;;;9.77;100.00
32761;BME280;19126;47.472;7.850;2023-05-11T04:40:10;96432.13;;;9.81;100.00
32761;BME280;19126;47.472;7.850;2023-05-11T04:42:40;96431.94;;;9.82;100.00
32761;BME280;19126;47.472;7.850;2023-05-11T04:45:27;96429.16;;;9.84;100.00
32761;BME280;19126;47.472;7.850;2023-05-11T04:48:00;96438.00;;;9.83;100.00
32761;BME280;19126;47.472;7.850;2023-05-11T04:50:32;96424.53;;;9.86;100.00
32761;BME280;19126;47.472;7.850;2023-05-11T04:53:15;96435.03;;;9.86;100.00
32761;BME280;19126;47.472;7.850;2023-05-11T04:55:55;96438.09;;;9.90;100.00
32761;BME280;19126;47.472;7.850;2023-05-11T04:58:40;96438.88;;;9.99;100.00
32761;BME280;19126;47.472;7.850;2023-05-11T05:01:19;96438.75;;;9.92;100.00
32761;BME280;19126;47.472;7.850;2023-05-11T05:04:08;96441.97;;;10.02;100.00
32761;BME280;19126;47.472;7.850;2023-05-11T05:06:45;96432.41;;;10.09;100.00
32761;BME280;19126;47.472;7.850;2023-05-11T05:09:19;96448.84;;;10.03;100.00
32761;BME280;19126;47.472;7.850;2023-05-11T05:12:09;96447.22;;;10.02;100.00
32761;BME280;19126;47.472;7.850;2023-05-11T05:14:47;96443.94;;;10.00;100.00
32761;BME280;19126;47.472;7.850;2023-05-11T05:17:25;96440.47;;;10.08;100.00
32761;BME280;19126;47.472;7.850;2023-05-11T05:20:03;96442.78;;;10.03;100.00
32761;BME280;19126;47.472;7.850;2023-05-11T05:22:34;96447.69;;;10.06;100.00
32761;BME280;19126;47.472;7.850;2023-05-11T05:25:10;96439.00;;;10.05;100.00
32761;BME280;19126;47.472;7.850;2023-05-11T05:27:43;96444.72;;;10.09;100.00
32761;BME280;19126;47.472;7.850;2023-05-11T05:30:22;96446.00;;;10.13;100.00
32761;BME280;19126;47.472;7.850;2023-05-11T05:33:08;96450.41;;;10.12;100.00
32761;BME280;19126;47.472;7.850;2023-05-11T05:35:40;96443.38;;;10.13;100.00
32761;BME280;19126;47.472;7.850;2023-05-11T05:38:13;96439.75;;;10.14;100.00
32761;BME280;19126;47.472;7.850;2023-05-11T05:41:01;96445.09;;;10.21;100.00
32761;BME280;19126;47.472;7.850;2023-05-11T05:43:35;96445.03;;;10.29;100.00
32761;BME280;19126;47.472;7.850;2023-05-11T05:46:19;96443.88;;;10.32;100.00
32761;BME280;19126;47.472;7.850;2023-05-11T05:48:58;96446.66;;;10.30;100.00
32761;BME280;19126;47.472;7.850;2023-05-11T05:51:38;96448.09;;;10.41;100.00
32761;BME280;19126;47.472;7.850;2023-05-11T05:54:16;96444.28;;;10.44;100.00
32761;BME280;19126;47.472;7.850;2023-05-11T05:56:51;96450.19;;;10.46;100.00
32761;BME280;19126;47.472;7.850;2023-05-11T05:59:30;96445.50;;;10.56;100.00
32761;BME280;19126;47.472;7.850;2023-05-11T06:02:06;96441.53;;;10.60;100.00
32761;BME280;19126;47.472;7.850;2023-05-11T06:04:52;96447.06;;;10.65;100.00
32761;BME280;19126;47.472;7.850;2023-05-11T06:07:27;96451.91;;;10.77;100.00
32761;BME280;19126;47.472;7.850;2023-05-11T06:10:01;96448.63;;;10.75;100.00
32761;BME280;19126;47.472;7.850;2023-05-11T06:12:32;96442.94;;;10.86;100.00
32761;BME280;19126;47.472;7.850;2023-05-11T06:15:04;96446.47;;;10.93;100.00
32761;BME280;19126;47.472;7.850;2023-05-11T06:17:48;96443.66;;;10.95;100.00
32761;BME280;19126;47.472;7.850;2023-05-11T06:20:44;96447.19;;;11.02;100.00
32761;BME280;19126;47.472;7.850;2023-05-11T06:23:25;96441.56;;;11.05;100.00
32761;BME280;19126;47.472;7.850;2023-05-11T06:26:14;96439.84;;;11.12;100.00
32761;BME280;19126;47.472;7.850;2023-05-11T06:28:59;96445.56;;;11.16;100.00
32761;BME280;19126;47.472;7.850;2023-05-11T06:31:56;96434.06;;;11.17;100.00
32761;BME280;19126;47.472;7.850;2023-05-11T06:34:39;96439.31;;;11.17;100.00
32761;BME280;19126;47.472;7.850;2023-05-11T06:37:29;96440.66;;;11.13;100.00
32761;BME280;19126;47.472;7.850;2023-05-11T06:40:12;96439.13;;;11.19;100.00
32761;BME280;19126;47.472;7.850;2023-05-11T06:42:45;96437.03;;;11.14;100.00
32761;BME280;19126;47.472;7.850;2023-05-11T06:45:29;96427.97;;;11.17;100.00
32761;BME280;19126;47.472;7.850;2023-05-11T06:48:17;96430.06;;;11.21;100.00
32761;BME280;19126;47.472;7.850;2023-05-11T06:50:54;96428.88;;;11.24;100.00
32761;BME280;19126;47.472;7.850;2023-05-11T06:53:40;96431.97;;;11.27;100.00
32761;BME280;19126;47.472;7.850;2023-05-11T06:56:18;96431.97;;;11.27;100.00
32761;BME280;19126;47.472;7.850;2023-05-11T06:58:50;96435.91;;;11.38;100.00
32761;BME280;19126;47.472;7.850;2023-05-11T07:01:39;96434.19;;;11.46;100.00
32761;BME280;19126;47.472;7.850;2023-05-11T07:04:11;96433.38;;;11.45;100.00
32761;BME280;19126;47.472;7.850;2023-05-11T07:07:02;96439.91;;;11.49;100.00
32761;BME280;19126;47.472;7.850;2023-05-11T07:09:49;96438.53;;;11.53;100.00
32761;BME280;19126;47.472;7.850;2023-05-11T07:12:23;96440.34;;;11.53;100.00
32761;BME280;19126;47.472;7.850;2023-05-11T07:14:58;96439.59;;;11.59;100.00
32761;BME280;19126;47.472;7.850;2023-05-11T07:17:36;96441.19;;;11.75;100.00
32761;BME280;19126;47.472;7.850;2023-05-11T07:20:19;96436.63;;;11.84;100.00
32761;BME280;19126;47.472;7.850;2023-05-11T07:22:54;96438.97;;;11.94;100.00
32761;BME280;19126;47.472;7.850;2023-05-11T07:25:30;96430.81;;;12.04;100.00
32761;BME280;19126;47.472;7.850;2023-05-11T07:28:03;96439.31;;;12.06;100.00
32761;BME280;19126;47.472;7.850;2023-05-11T07:30:34;96440.19;;;12.13;100.00
32761;BME280;19126;47.472;7.850;2023-05-11T07:33:07;96439.00;;;12.15;100.00
32761;BME280;19126;47.472;7.850;2023-05-11T07:35:53;96441.88;;;12.21;100.00
32761;BME280;19126;47.472;7.850;2023-05-11T07:38:39;96439.50;;;12.26;100.00
32761;BME280;19126;47.472;7.850;2023-05-11T07:41:13;96434.84;;;12.78;100.00
32761;BME280;19126;47.472;7.850;2023-05-11T07:43:51;96441.53;;;13.16;100.00
32761;BME280;19126;47.472;7.850;2023-05-11T07:46:25;96428.13;;;13.53;100.00
32761;BME280;19126;47.472;7.850;2023-05-11T07:49:05;96429.50;;;14.11;100.00
32761;BME280;19126;47.472;7.850;2023-05-11T07:51:44;96416.53;;;14.36;97.65
32761;BME280;19126;47.472;7.850;2023-05-11T07:54:19;96422.81;;;14.55;96.25
32761;BME280;19126;47.472;7.850;2023-05-11T07:57:09;96433.59;;;14.40;92.41
32761;BME280;19126;47.472;7.850;2023-05-11T07:59:45;96429.72;;;14.23;93.56
32761;BME280;19126;47.472;7.850;2023-05-11T08:02:17;96433.16;;;14.03;96.42
32761;BME280;19126;47.472;7.850;2023-05-11T08:04:51;96431.78;;;13.52;96.57
32761;BME280;19126;47.472;7.850;2023-05-11T08:07:23;96438.44;;;13.41;99.48
32761;BME280;19126;47.472;7.850;2023-05-11T08:10:01;96436.91;;;13.25;100.00
32761;BME280;19126;47.472;7.850;2023-05-11T08:12:36;96442.38;;;13.16;100.00
32761;BME280;19126;47.472;7.850;2023-05-11T08:15:08;96429.13;;;13.10;100.00
32761;BME280;19126;47.472;7.850;2023-05-11T08:17:49;96433.63;;;13.16;100.00
32761;BME280;19126;47.472;7.850;2023-05-11T08:20:22;96431.59;;;13.18;100.00
32761;BME280;19126;47.472;7.850;2023-05-11T08:23:05;96432.59;;;13.17;98.50
32761;BME280;19126;47.472;7.850;2023-05-11T08:25:55;96431.81;;;13.16;99.96
32761;BME280;19126;47.472;7.850;2023-05-11T08:28:28;96420.09;;;13.26;100.00
32761;BME280;19126;47.472;7.850;2023-05-11T08:31:04;96423.00;;;13.38;100.00
32761;BME280;19126;47.472;7.850;2023-05-11T08:33:42;96418.28;;;13.33;95.91
32761;BME280;19126;47.472;7.850;2023-05-11T08:36:16;96433.22;;;13.54;91.83
32761;BME280;19126;47.472;7.850;2023-05-11T08:38:48;96432.22;;;13.55;92.11
32761;BME280;19126;47.472;7.850;2023-05-11T08:41:21;96425.50;;;13.53;92.77
32761;BME280;19126;47.472;7.850;2023-05-11T08:43:56;96423.25;;;13.50;94.23
32761;BME280;19126;47.472;7.850;2023-05-11T08:46:45;96411.91;;;13.49;95.19
32761;BME280;19126;47.472;7.850;2023-05-11T08:49:26;96421.44;;;13.57;96.23
32761;BME280;19126;47.472;7.850;2023-05-11T08:51:59;96416.00;;;13.58;98.14
32761;BME280;19126;47.472;7.850;2023-05-11T08:54:36;96419.25;;;13.67;94.00
32761;BME280;19126;47.472;7.850;2023-05-11T08:57:10;96420.69;;;13.76;95.02
32761;BME280;19126;47.472;7.850;2023-05-11T08:59:46;96412.59;;;13.78;94.63
32761;BME280;19126;47.472;7.850;2023-05-11T09:02:20;96408.72;;;13.81;95.31
32761;BME280;19126;47.472;7.850;2023-05-11T09:04:57;96406.69;;;13.76;92.10
32761;BME280;19126;47.472;7.850;2023-05-11T09:07:40;96405.50;;;13.85;94.21
32761;BME280;19126;47.472;7.850;2023-05-11T09:10:14;96407.56;;;13.97;92.06
32761;BME280;19126;47.472;7.850;2023-05-11T09:13:20;96405.13;;;14.02;92.17
32761;BME280;19126;47.472;7.850;2023-05-11T09:16:31;96404.91;;;14.10;92.49
32761;BME280;19126;47.472;7.850;2023-05-11T09:19:16;96405.34;;;14.20;92.71
32761;BME280;19126;47.472;7.850;2023-05-11T09:21:51;96402.06;;;14.39;88.19
32761;BME280;19126;47.472;7.850;2023-05-11T09:24:35;96394.97;;;14.53;88.47
32761;BME280;19126;47.472;7.850;2023-05-11T09:27:26;96398.22;;;14.61;88.24
32761;BME280;19126;47.472;7.850;2023-05-11T09:30:15;96395.78;;;14.67;88.66
32761;BME280;19126;47.472;7.850;2023-05-11T09:32:53;96402.28;;;14.64;92.12
32761;BME280;19126;47.472;7.850;2023-05-11T09:35:30;96395.16;;;14.58;93.52
32761;BME280;19126;47.472;7.850;2023-05-11T09:38:29;96388.47;;;14.48;95.39
32761;BME280;19126;47.472;7.850;2023-05-11T09:41:02;96388.25;;;14.43;98.90
32761;BME280;19126;47.472;7.850;2023-05-11T09:43:37;96388.06;;;14.58;100.00
32761;BME280;19126;47.472;7.850;2023-05-11T09:46:25;96386.22;;;14.59;100.00
32761;BME280;19126;47.472;7.850;2023-05-11T09:49:05;96385.19;;;14.87;100.00
32761;BME280;19126;47.472;7.850;2023-05-11T09:51:54;96383.09;;;15.02;96.46
32761;BME280;19126;47.472;7.850;2023-05-11T09:54:46;96380.97;;;15.31;96.13
32761;BME280;19126;47.472;7.850;2023-05-11T09:57:31;96383.53;;;15.51;88.19
32761;BME280;19126;47.472;7.850;2023-05-11T10:00:15;96380.03;;;15.58;91.36
32761;BME280;19126;47.472;7.850;2023-05-11T10:02:57;96387.13;;;16.28;88.99
32761;BME280;19126;47.472;7.850;2023-05-11T10:05:36;96376.13;;;15.99;79.85
32761;BME280;19126;47.472;7.850;2023-05-11T10:08:08;96375.91;;;15.23;79.97
32761;BME280;19126;47.472;7.850;2023-05-11T10:10:38;96374.13;;;15.03;83.26
32761;BME280;19126;47.472;7.850;2023-05-11T10:13:08;96369.88;;;15.02;90.04
32761;BME280;19126;47.472;7.850;2023-05-11T10:15:51;96379.31;;;14.78;92.04
32761;BME280;19126;47.472;7.850;2023-05-11T10:18:29;96382.97;;;14.77;93.07
32761;BME280;19126;47.472;7.850;2023-05-11T10:21:06;96383.56;;;14.59;91.77
32761;BME280;19126;47.472;7.850;2023-05-11T10:23:40;96385.59;;;14.36;91.59
32761;BME280;19126;47.472;7.850;2023-05-11T10:26:14;96395.19;;;14.17;94.98
32761;BME280;19126;47.472;7.850;2023-05-11T10:28:51;96387.03;;;14.05;96.57
32761;BME280;19126;47.472;7.850;2023-05-11T10:31:30;96386.44;;;14.10;98.54
32761;BME280;19126;47.472;7.850;2023-05-11T10:34:05;96390.28;;;14.07;98.14
32761;BME280;19126;47.472;7.850;2023-05-11T10:36:41;96380.94;;;14.12;99.62
32761;BME280;19126;47.472;7.850;2023-05-11T10:39:23;96374.22;;;14.29;100.00
32761;BME280;19126;47.472;7.850;2023-05-11T10:42:45;96374.81;;;14.45;98.44
32761;BME280;19126;47.472;7.850;2023-05-11T10:45:55;96367.28;;;14.55;95.12
32761;BME280;19126;47.472;7.850;2023-05-11T10:48:57;96370.97;;;14.68;93.57
32761;BME280;19126;47.472;7.850;2023-05-11T10:55:09;96362.78;;;14.96;91.78
32761;BME280;19126;47.472;7.850;2023-05-11T10:58:05;96358.81;;;15.19;90.51
32761;BME280;19126;47.472;7.850;2023-05-11T11:01:19;96360.50;;;15.13;88.54
32761;BME280;19126;47.472;7.850;2023-05-11T11:04:02;96349.72;;;15.08;88.76
32761;BME280;19126;47.472;7.850;2023-05-11T11:06:46;96355.47;;;14.91;88.08
32761;BME280;19126;47.472;7.850;2023-05-11T11:09:16;96355.25;;;14.93;92.90
32761;BME280;19126;47.472;7.850;2023-05-11T11:12:13;96351.63;;;14.67;83.87
32761;BME280;19126;47.472;7.850;2023-05-11T11:15:05;96354.06;;;14.55;83.18
32761;BME280;19126;47.472;7.850;2023-05-11T11:18:27;96347.38;;;14.66;84.98
32761;BME280;19126;47.472;7.850;2023-05-11T11:21:15;96350.00;;;14.66;81.77
32761;BME280;19126;47.472;7.850;2023-05-11T11:24:12;96344.34;;;14.62;82.78
32761;BME280;19126;47.472;7.850;2023-05-11T11:27:16;96340.22;;;14.87;85.02
32761;BME280;19126;47.472;7.850;2023-05-11T11:30:19;96329.81;;;14.92;83.33
32761;BME280;19126;47.472;7.850;2023-05-11T11:35:47;96336.25;;;15.55;85.33
32761;BME280;19126;47.472;7.850;2023-05-11T11:38:33;96332.81;;;15.80;86.37
32761;BME280;19126;47.472;7.850;2023-05-11T11:41:32;96328.97;;;15.76;80.42
32761;BME280;19126;47.472;7.850;2023-05-11T11:44:25;96332.41;;;15.51;74.80
32761;BME280;19126;47.472;7.850;2023-05-11T11:47:12;96325.72;;;15.42;75.26
32761;BME280;19126;47.472;7.850;2023-05-11T11:49:54;96324.84;;;15.55;79.78
32761;BME280;19126;47.472;7.850;2023-05-11T11:52:38;96321.13;;;15.62;79.95
32761;BME280;19126;47.472;7.850;2023-05-11T11:55:44;96326.84;;;15.59;80.23
32761;BME280;19126;47.472;7.850;2023-05-11T11:58:55;96325.66;;;15.55;79.21
32761;BME280;19126;47.472;7.850;2023-05-11T12:01:40;96319.56;;;15.55;78.10
32761;BME280;19126;47.472;7.850;2023-05-11T12:04:45;96320.25;;;15.75;80.88
32761;BME280;19126;47.472;7.850;2023-05-11T12:07:30;96310.94;;;15.98;77.35
32761;BME280;19126;47.472;7.850;2023-05-11T12:10:10;96318.97;;;16.35;79.56
32761;BME280;19126;47.472;7.850;2023-05-11T12:12:51;96306.88;;;16.83;76.08
32761;BME280;19126;47.472;7.850;2023-05-11T12:15:25;96303.53;;;17.25;73.71
32761;BME280;19126;47.472;7.850;2023-05-11T12:18:17;96305.44;;;17.37;73.44
32761;BME280;19126;47.472;7.850;2023-05-11T12:21:02;96306.00;;;17.39;73.78
32761;BME280;19126;47.472;7.850;2023-05-11T12:23:58;96312.81;;;17.35;67.83
32761;BME280;19126;47.472;7.850;2023-05-11T12:26:38;96300.28;;;17.23;66.93
32761;BME280;19126;47.472;7.850;2023-05-11T12:29:23;96307.81;;;17.26;71.79
32761;BME280;19126;47.472;7.850;2023-05-11T12:32:00;96293.84;;;17.31;73.90
32761;BME280;19126;47.472;7.850;2023-05-11T12:35:00;96292.94;;;17.37;71.29
32761;BME280;19126;47.472;7.850;2023-05-11T12:37:36;96291.06;;;17.26;65.62
32761;BME280;19126;47.472;7.850;2023-05-11T12:40:12;96293.94;;;17.24;71.98
32761;BME280;19126;47.472;7.850;2023-05-11T12:45:39;96286.38;;;17.09;71.58
32761;BME280;19126;47.472;7.850;2023-05-11T12:48:18;96285.69;;;16.95;70.51
32761;BME280;19126;47.472;7.850;2023-05-11T12:51:11;96291.09;;;16.89;69.72
32761;BME280;19126;47.472;7.850;2023-05-11T12:53:51;96287.19;;;16.54;71.47
32761;BME280;19126;47.472;7.850;2023-05-11T12:56:49;96280.06;;;16.10;77.21
32761;BME280;19126;47.472;7.850;2023-05-11T12:59:31;96289.44;;;15.81;79.94
32761;BME280;19126;47.472;7.850;2023-05-11T13:02:15;96289.78;;;15.59;82.10
32761;BME280;19126;47.472;7.850;2023-05-11T13:05:09;96292.56;;;15.39;81.72
32761;BME280;19126;47.472;7.850;2023-05-11T13:07:55;96292.06;;;15.23;87.12
32761;BME280;19126;47.472;7.850;2023-05-11T13:10:29;96288.88;;;15.01;91.52
32761;BME280;19126;47.472;7.850;2023-05-11T13:13:31;96281.66;;;14.83;97.35
32761;BME280;19126;47.472;7.850;2023-05-11T13:16:31;96282.69;;;14.69;95.32
32761;BME280;19126;47.472;7.850;2023-05-11T13:19:25;96276.41;;;14.56;99.53
32761;BME280;19126;47.472;7.850;2023-05-11T13:21:59;96278.44;;;14.54;100.00
32761;BME280;19126;47.472;7.850;2023-05-11T13:24:51;96282.09;;;14.60;100.00
32761;BME280;19126;47.472;7.850;2023-05-11T13:27:48;96272.53;;;14.65;100.00
32761;BME280;19126;47.472;7.850;2023-05-11T13:30:59;96276.59;;;14.75;100.00
32761;BME280;19126;47.472;7.850;2023-05-11T13:33:48;96271.13;;;14.70;97.54
32761;BME280;19126;47.472;7.850;2023-05-11T13:36:37;96269.28;;;14.70;94.86
32761;BME280;19126;47.472;7.850;2023-05-11T13:39:26;96277.41;;;14.69;95.99
32761;BME280;19126;47.472;7.850;2023-05-11T13:42:24;96276.09;;;14.19;99.96
32761;BME280;19126;47.472;7.850;2023-05-11T13:45:14;96264.13;;;13.69;100.00
32761;BME280;19126;47.472;7.850;2023-05-11T13:48:00;96265.56;;;13.72;100.00
32761;BME280;19126;47.472;7.850;2023-05-11T13:50:58;96267.34;;;13.38;100.00
32761;BME280;19126;47.472;7.850;2023-05-11T13:53:42;96262.97;;;13.03;100.00
32761;BME280;19126;47.472;7.850;2023-05-11T13:56:52;96258.72;;;13.02;100.00
32761;BME280;19126;47.472;7.850;2023-05-11T14:00:13;96247.91;;;12.83;100.00
32761;BME280;19126;47.472;7.850;2023-05-11T14:02:57;96255.78;;;12.70;100.00
32761;BME280;19126;47.472;7.850;2023-05-11T14:06:07;96250.25;;;12.58;100.00
32761;BME280;19126;47.472;7.850;2023-05-11T14:08:57;96255.06;;;12.48;100.00